Time;durP1;ratioP1;P1;durP2;ratioP2;P2;SDS_P1;SDS_P2;PMS_P1;PMS_P2;Temp;Humidity;BMP_temperature;BMP_pressure;BME280_temperature;BME280_humidity;BME280_pressure;Samples;Min_cycle;Max_cycle;Signal;HPM_P1;HPM_P2
2023/03/31 04:02:53;;;;;;;3.53;2.80;;;6.00;99.90;;;;;;5454913;23;20324;-67
2023/03/31 04:05:19;;;;;;;4.22;3.17;;;6.10;99.90;;;;;;4974771;28;20555;-67
2023/03/31 04:07:46;;;;;;;6.22;4.97;;;6.10;99.90;;;;;;4975132;28;20206;-67
2023/03/31 04:10:13;;;;;;;6.75;4.93;;;6.10;99.90;;;;;;4975155;28;20207;-67
2023/03/31 04:12:40;;;;;;;7.28;5.93;;;6.10;99.90;;;;;;4974256;28;20223;-68
2023/03/31 04:15:08;;;;;;;9.60;6.65;;;6.10;99.90;;;;;;4975140;28;20208;-66
2023/03/31 04:17:36;;;;;;;10.52;6.43;;;6.10;99.90;;;;;;4976214;28;20207;-66
2023/03/31 04:20:08;;;;;;;12.27;6.07;;;6.10;99.90;;;;;;4975008;28;20214;-66
2023/03/31 04:22:39;;;;;;;8.75;5.75;;;6.10;99.90;;;;;;4974951;28;20298;-67
2023/03/31 04:25:15;;;;;;;6.28;5.43;;;6.20;99.90;;;;;;4974972;28;20222;-67
2023/03/31 04:27:45;;;;;;;8.52;4.53;;;6.20;99.90;;;;;;4974961;28;20319;-66
2023/03/31 04:30:13;;;;;;;6.85;4.70;;;6.30;99.90;;;;;;4974912;28;20194;-66
2023/03/31 04:32:40;;;;;;;5.13;4.03;;;6.30;99.90;;;;;;4974916;28;20630;-67
2023/03/31 04:35:08;;;;;;;5.13;4.65;;;6.40;99.90;;;;;;4974774;28;20230;-66
2023/03/31 04:37:37;;;;;;;4.97;4.38;;;6.40;99.90;;;;;;4974693;28;20208;-67
2023/03/31 04:40:08;;;;;;;4.60;4.20;;;6.40;99.90;;;;;;4974775;28;20214;-67
2023/03/31 04:42:36;;;;;;;7.50;5.40;;;6.40;99.90;;;;;;4974710;28;20340;-67
2023/03/31 04:45:03;;;;;;;7.57;4.70;;;6.40;99.90;;;;;;4974679;28;20208;-67
2023/03/31 04:47:29;;;;;;;9.13;5.65;;;6.40;99.90;;;;;;4974766;28;20214;-66
2023/03/31 04:49:56;;;;;;;10.30;5.78;;;6.40;99.90;;;;;;4974361;28;20689;-66
2023/03/31 04:52:24;;;;;;;8.95;6.32;;;6.50;99.90;;;;;;4974540;28;20231;-67
2023/03/31 04:54:51;;;;;;;9.27;5.47;;;6.50;99.90;;;;;;4974621;28;20258;-67
2023/03/31 04:57:18;;;;;;;6.95;5.30;;;6.50;99.90;;;;;;4974630;28;20208;-66
2023/03/31 04:59:44;;;;;;;8.02;5.55;;;6.50;99.90;;;;;;4974457;28;20226;-66
2023/03/31 05:02:11;;;;;;;7.65;5.43;;;6.50;99.90;;;;;;4974455;28;20223;-67
2023/03/31 05:04:38;;;;;;;5.75;4.75;;;6.60;99.90;;;;;;4974366;28;20277;-67
2023/03/31 05:07:05;;;;;;;6.93;5.57;;;6.60;99.90;;;;;;4974297;28;20803;-67
2023/03/31 05:09:33;;;;;;;6.57;5.28;;;6.70;99.90;;;;;;4974545;28;20199;-67
2023/03/31 05:11:59;;;;;;;6.28;5.50;;;6.70;99.90;;;;;;4974167;28;20593;-67
2023/03/31 05:14:26;;;;;;;9.25;7.20;;;6.70;99.90;;;;;;4974479;28;20203;-67
2023/03/31 05:16:56;;;;;;;6.65;5.60;;;6.70;99.90;;;;;;4974253;28;20675;-67
2023/03/31 05:19:23;;;;;;;6.45;5.35;;;6.80;99.90;;;;;;4974377;28;20207;-66
2023/03/31 05:21:50;;;;;;;10.88;6.95;;;6.80;99.90;;;;;;4974310;28;20199;-67
2023/03/31 05:24:16;;;;;;;6.88;5.72;;;6.90;99.90;;;;;;4975935;28;20725;-66
2023/03/31 05:26:48;;;;;;;7.30;5.85;;;6.80;99.90;;;;;;4978157;28;20210;-66
2023/03/31 05:29:15;;;;;;;5.68;5.18;;;6.90;99.90;;;;;;4978103;28;20187;-66
2023/03/31 05:31:42;;;;;;;5.63;5.05;;;6.90;99.90;;;;;;4978047;28;20231;-66
2023/03/31 05:34:09;;;;;;;6.65;5.10;;;6.90;99.90;;;;;;4977898;28;20203;-66
2023/03/31 05:36:36;;;;;;;4.82;4.43;;;7.00;99.90;;;;;;4977802;28;20206;-67
2023/03/31 05:39:02;;;;;;;5.47;4.97;;;7.00;99.90;;;;;;4977717;28;20725;-66
2023/03/31 05:41:29;;;;;;;7.38;4.78;;;7.00;99.90;;;;;;4978314;28;20207;-66
2023/03/31 05:43:58;;;;;;;6.78;4.82;;;7.00;99.90;;;;;;4981122;28;20228;-66
2023/03/31 05:46:25;;;;;;;8.40;5.72;;;7.00;99.90;;;;;;4982806;28;20211;-66
2023/03/31 05:48:52;;;;;;;6.30;5.53;;;7.00;99.90;;;;;;4982150;28;20203;-66
2023/03/31 05:51:19;;;;;;;5.20;4.70;;;7.00;99.90;;;;;;4978395;28;20203;-65
2023/03/31 05:53:45;;;;;;;5.28;4.75;;;7.10;99.90;;;;;;4977517;28;20236;-65
2023/03/31 05:56:12;;;;;;;7.57;5.03;;;7.10;99.90;;;;;;4977679;28;20294;-65
2023/03/31 05:58:39;;;;;;;9.18;6.25;;;7.10;99.90;;;;;;4977673;28;20219;-65
2023/03/31 06:01:09;;;;;;;11.82;6.70;;;7.10;99.90;;;;;;4977628;28;20211;-65
2023/03/31 06:03:37;;;;;;;7.63;6.07;;;7.10;99.90;;;;;;4977514;28;20234;-65
2023/03/31 06:06:06;;;;;;;6.63;6.03;;;7.10;99.90;;;;;;4977080;28;20215;-65
2023/03/31 06:08:33;;;;;;;5.65;5.10;;;7.10;99.90;;;;;;4977900;28;20202;-65
2023/03/31 06:11:00;;;;;;;5.30;4.75;;;7.20;99.90;;;;;;4977282;28;20203;-66
2023/03/31 06:13:27;;;;;;;5.85;5.25;;;7.20;99.90;;;;;;4977170;28;20234;-65
2023/03/31 06:15:54;;;;;;;5.05;4.60;;;7.30;99.90;;;;;;4977167;28;20199;-65
2023/03/31 06:18:23;;;;;;;4.70;4.30;;;7.40;99.90;;;;;;4976984;28;20223;-65
2023/03/31 06:20:51;;;;;;;4.63;4.22;;;7.40;99.90;;;;;;4977062;28;20207;-65
2023/03/31 06:23:18;;;;;;;5.88;4.82;;;7.50;99.90;;;;;;4976982;28;20224;-65
2023/03/31 06:25:44;;;;;;;5.18;4.68;;;7.50;99.90;;;;;;4977034;28;20211;-65
2023/03/31 06:28:11;;;;;;;8.88;6.20;;;7.60;99.90;;;;;;4977006;28;20210;-65
2023/03/31 06:30:38;;;;;;;7.43;5.47;;;7.60;99.90;;;;;;4976967;28;20203;-65
2023/03/31 06:33:04;;;;;;;6.95;5.75;;;7.70;99.90;;;;;;4977067;28;20227;-65
2023/03/31 06:35:33;;;;;;;6.07;5.45;;;7.70;99.90;;;;;;4976505;28;20204;-65
2023/03/31 06:37:59;;;;;;;5.25;4.75;;;7.80;99.90;;;;;;4977189;28;20296;-65
2023/03/31 06:40:26;;;;;;;5.32;4.63;;;7.80;99.90;;;;;;4977953;28;20234;-65
2023/03/31 06:42:53;;;;;;;6.30;5.25;;;7.90;99.90;;;;;;4976605;28;20219;-65
2023/03/31 06:45:19;;;;;;;10.32;6.82;;;8.00;99.90;;;;;;4976802;28;20207;-66
2023/03/31 06:47:46;;;;;;;7.25;6.35;;;8.10;99.90;;;;;;4977570;28;20551;-64
2023/03/31 06:50:13;;;;;;;10.07;6.95;;;8.20;99.90;;;;;;4976582;28;20203;-65
2023/03/31 06:52:41;;;;;;;11.88;6.38;;;8.20;99.90;;;;;;4976669;28;20223;-65
2023/03/31 06:55:09;;;;;;;12.30;6.30;;;8.30;99.90;;;;;;4976449;28;20200;-65
2023/03/31 06:57:36;;;;;;;8.57;6.38;;;8.30;99.90;;;;;;4976341;28;20213;-65
2023/03/31 07:00:03;;;;;;;12.43;6.50;;;8.20;99.90;;;;;;4976346;28;20223;-65
2023/03/31 07:02:30;;;;;;;7.03;2.97;;;8.30;99.90;;;;;;4976336;28;20246;-65
2023/03/31 07:04:57;;;;;;;2.20;2.10;;;8.30;99.90;;;;;;4976018;28;20571;-65
2023/03/31 07:07:23;;;;;;;4.18;1.75;;;8.30;99.90;;;;;;4976542;28;20207;-65
2023/03/31 07:09:51;;;;;;;1.50;1.40;;;8.20;99.90;;;;;;4976209;28;20203;-64
2023/03/31 07:12:19;;;;;;;3.22;1.25;;;8.00;99.90;;;;;;4976090;28;20254;-65
2023/03/31 07:14:46;;;;;;;1.77;1.27;;;7.90;99.90;;;;;;4977195;28;20265;-65
2023/03/31 07:17:12;;;;;;;2.65;0.80;;;7.90;99.90;;;;;;4977332;28;20204;-65
2023/03/31 07:19:41;;;;;;;0.68;0.68;;;7.80;99.90;;;;;;4978076;28;20235;-65
2023/03/31 07:22:07;;;;;;;0.70;0.70;;;7.70;99.90;;;;;;4977221;28;20219;-65
2023/03/31 07:24:34;;;;;;;0.63;0.52;;;7.70;99.90;;;;;;4976399;28;20200;-66
2023/03/31 07:27:02;;;;;;;0.50;0.47;;;7.70;99.90;;;;;;4975597;28;20704;-66
2023/03/31 07:29:29;;;;;;;1.00;0.70;;;7.70;99.90;;;;;;4975894;28;20208;-66
2023/03/31 07:31:55;;;;;;;0.70;0.70;;;7.60;99.90;;;;;;4975488;28;20219;-66
2023/03/31 07:34:22;;;;;;;0.77;0.77;;;7.60;99.90;;;;;;4975731;28;20226;-66
2023/03/31 07:36:50;;;;;;;0.75;0.75;;;7.60;99.90;;;;;;4976286;28;20211;-66
2023/03/31 07:39:17;;;;;;;0.70;0.70;;;7.60;99.90;;;;;;4975641;28;20269;-65
2023/03/31 07:41:44;;;;;;;0.73;0.70;;;7.60;99.90;;;;;;4975580;28;20234;-66
2023/03/31 07:44:12;;;;;;;0.90;0.90;;;7.80;99.90;;;;;;4975577;28;20207;-66
2023/03/31 07:46:39;;;;;;;1.00;1.00;;;8.00;99.90;;;;;;4975223;28;20214;-66
2023/03/31 07:49:06;;;;;;;2.85;0.93;;;9.30;99.90;;;;;;4975149;28;20253;-66
2023/03/31 07:51:33;;;;;;;1.42;1.10;;;12.60;99.90;;;;;;4975072;28;20211;-66
2023/03/31 07:54:00;;;;;;;2.35;1.00;;;15.50;99.90;;;;;;4975415;28;20227;-65
2023/03/31 07:56:26;;;;;;;0.73;0.70;;;18.40;99.90;;;;;;4975253;28;20214;-64
2023/03/31 07:58:53;;;;;;;1.75;0.73;;;20.40;99.90;;;;;;4975260;28;20226;-66
2023/03/31 08:01:24;;;;;;;0.70;0.70;;;;;;;;;;4975303;28;20199;-66
2023/03/31 08:03:53;;;;;;;0.60;0.60;;;23.30;88.10;;;;;;4975222;28;20226;-66
2023/03/31 08:06:20;;;;;;;1.42;0.60;;;24.60;55.80;;;;;;4974871;28;20265;-65
2023/03/31 08:08:47;;;;;;;1.27;0.73;;;24.90;45.60;;;;;;4975133;28;20203;-65
2023/03/31 08:11:14;;;;;;;0.63;0.63;;;24.50;40.90;;;;;;4975140;28;20211;-65
2023/03/31 08:13:41;;;;;;;1.20;0.63;;;22.10;42.60;;;;;;4974779;28;20249;-65
2023/03/31 08:16:08;;;;;;;0.63;0.63;;;19.40;47.60;;;;;;4975079;28;20211;-65
2023/03/31 08:18:36;;;;;;;0.70;0.70;;;17.90;54.20;;;;;;4975071;28;20608;-65
2023/03/31 08:21:03;;;;;;;1.27;0.75;;;16.70;68.70;;;;;;4974957;28;20226;-66
2023/03/31 08:23:30;;;;;;;1.77;0.70;;;16.00;99.90;;;;;;4974596;28;20606;-66
2023/03/31 08:26:08;;;;;;;0.98;0.90;;;15.90;86.40;;;;;;4975021;28;20211;-66
2023/03/31 08:28:34;;;;;;;1.05;0.70;;;16.00;94.90;;;;;;4974539;28;20183;-66
2023/03/31 08:31:04;;;;;;;0.70;0.70;;;15.90;97.30;;;;;;4974714;28;20199;-66
2023/03/31 08:33:31;;;;;;;2.22;0.68;;;15.70;97.50;;;;;;4975066;28;20219;-66
2023/03/31 08:36:02;;;;;;;1.50;0.75;;;15.40;99.90;;;;;;4974906;28;20230;-66
2023/03/31 08:38:28;;;;;;;3.75;1.00;;;15.20;99.90;;;;;;4974787;28;20191;-66
2023/03/31 08:41:00;;;;;;;2.92;1.00;;;15.00;99.90;;;;;;4974379;28;20695;-66
2023/03/31 08:43:32;;;;;;;1.15;0.95;;;15.00;99.90;;;;;;4974588;28;20235;-66
2023/03/31 08:46:00;;;;;;;0.95;0.95;;;15.00;99.90;;;;;;4974329;28;20199;-66
2023/03/31 08:48:30;;;;;;;4.30;1.05;;;14.90;99.90;;;;;;4974848;28;20203;-66
2023/03/31 08:51:02;;;;;;;3.70;0.80;;;14.80;99.30;;;;;;4974953;28;20210;-66
2023/03/31 08:53:34;;;;;;;1.52;0.85;;;14.60;99.90;;;;;;4974650;28;20238;-66
2023/03/31 08:56:02;;;;;;;4.88;1.13;;;14.40;99.90;;;;;;4974677;28;20191;-66
2023/03/31 08:58:35;;;;;;;3.05;1.02;;;14.10;99.90;;;;;;4975221;28;20257;-66
2023/03/31 09:01:13;;;;;;;3.35;0.80;;;14.10;96.10;;;;;;4978553;28;20215;-66
2023/03/31 09:03:49;;;;;;;1.05;0.77;;;13.90;93.00;;;;;;4978400;28;20274;-66
2023/03/31 09:06:23;;;;;;;2.97;0.70;;;13.90;94.50;;;;;;4978119;28;20210;-66
2023/03/31 09:08:57;;;;;;;0.80;0.80;;;14.00;90.10;;;;;;4978450;28;20288;-66
2023/03/31 09:11:32;;;;;;;2.60;1.05;;;14.20;88.90;;;;;;4978400;28;20192;-66
2023/03/31 09:14:10;;;;;;;0.98;0.75;;;14.30;89.20;;;;;;4978035;28;20187;-66
2023/03/31 09:16:40;;;;;;;2.75;0.90;;;14.30;80.10;;;;;;4978353;28;20285;-66
2023/03/31 09:19:13;;;;;;;3.03;1.33;;;14.20;83.30;;;;;;4978189;28;20199;-66
2023/03/31 09:21:44;;;;;;;6.13;0.88;;;14.20;78.30;;;;;;4978190;28;20196;-66
2023/03/31 09:24:16;;;;;;;3.70;0.90;;;14.40;78.90;;;;;;4977900;28;20555;-66
2023/03/31 09:26:47;;;;;;;0.73;0.68;;;14.40;76.90;;;;;;4977835;28;20665;-66
2023/03/31 09:29:18;;;;;;;1.65;0.80;;;14.50;79.70;;;;;;4978054;28;20188;-66
2023/03/31 09:31:45;;;;;;;2.60;0.70;;;14.50;78.10;;;;;;4977967;28;20270;-67
2023/03/31 09:34:21;;;;;;;0.95;0.60;;;14.30;76.90;;;;;;4977902;28;20239;-65
2023/03/31 09:36:49;;;;;;;1.70;0.98;;;14.00;75.90;;;;;;4977853;28;20251;-65
2023/03/31 09:39:16;;;;;;;6.13;0.90;;;13.80;68.20;;;;;;4977566;28;20678;-66
2023/03/31 09:41:45;;;;;;;1.75;0.80;;;13.70;72.80;;;;;;4977423;28;20566;-66
2023/03/31 09:44:25;;;;;;;1.63;0.73;;;13.80;74.20;;;;;;4977782;28;20203;-65
2023/03/31 09:46:53;;;;;;;1.95;0.85;;;13.90;76.20;;;;;;4977796;28;20183;-65
2023/03/31 09:49:22;;;;;;;2.33;0.85;;;13.80;66.90;;;;;;4977849;28;20214;-66
2023/03/31 09:52:03;;;;;;;2.47;0.52;;;13.60;67.80;;;;;;4977535;28;20203;-66
2023/03/31 09:54:36;;;;;;;1.30;0.70;;;13.40;69.00;;;;;;4977582;28;20200;-66
2023/03/31 09:57:13;;;;;;;2.60;1.10;;;13.20;69.20;;;;;;4977440;28;20187;-65
2023/03/31 09:59:40;;;;;;;0.77;0.60;;;13.10;72.10;;;;;;4977387;28;20239;-66
2023/03/31 10:02:28;;;;;;;0.93;0.55;;;12.90;69.90;;;;;;4977301;28;20359;-66
2023/03/31 10:04:55;;;;;;;3.03;0.85;;;12.80;74.90;;;;;;4977130;28;20218;-66
2023/03/31 10:07:24;;;;;;;3.35;1.15;;;12.80;74.40;;;;;;4977400;28;20211;-66
2023/03/31 10:09:52;;;;;;;5.30;0.75;;;12.80;74.70;;;;;;4976565;28;20199;-66
2023/03/31 10:12:23;;;;;;;1.90;0.70;;;12.90;74.00;;;;;;4976458;28;20733;-66
2023/03/31 10:14:51;;;;;;;1.17;0.70;;;13.00;69.10;;;;;;4977174;28;20192;-66
2023/03/31 10:17:20;;;;;;;1.27;0.60;;;13.10;67.50;;;;;;4977168;28;20207;-66
2023/03/31 10:19:50;;;;;;;2.70;0.80;;;13.10;63.60;;;;;;4977008;28;20282;-66
2023/03/31 10:22:29;;;;;;;2.17;0.85;;;13.20;63.50;;;;;;4977096;28;20238;-66
2023/03/31 10:25:08;;;;;;;3.58;0.63;;;13.40;63.40;;;;;;4978937;28;20267;-65
2023/03/31 10:27:35;;;;;;;1.42;0.95;;;13.50;63.30;;;;;;4977617;28;20536;-65
2023/03/31 10:30:04;;;;;;;3.53;0.80;;;13.70;63.50;;;;;;4977915;28;20210;-66
2023/03/31 10:32:33;;;;;;;1.63;0.75;;;14.00;61.40;;;;;;4977057;28;20231;-65
2023/03/31 10:35:06;;;;;;;6.38;0.80;;;14.00;53.60;;;;;;4978186;28;20211;-67
2023/03/31 10:37:36;;;;;;;3.08;0.73;;;13.90;53.60;;;;;;4977094;28;20215;-65
2023/03/31 10:40:14;;;;;;;3.92;1.10;;;13.80;52.90;;;;;;4976872;28;20212;-65
2023/03/31 10:42:50;;;;;;;2.80;1.00;;;13.70;52.20;;;;;;4976778;28;20230;-65
2023/03/31 10:45:26;;;;;;;4.93;1.10;;;13.70;50.60;;;;;;4976694;28;20190;-65
2023/03/31 10:47:54;;;;;;;1.33;0.90;;;13.60;51.30;;;;;;4976733;28;20209;-65
2023/03/31 10:50:28;;;;;;;2.40;0.93;;;13.60;52.10;;;;;;4976667;28;20222;-65
2023/03/31 10:53:02;;;;;;;3.78;0.70;;;13.70;52.60;;;;;;4976679;28;20231;-65
2023/03/31 10:55:35;;;;;;;4.85;1.30;;;13.80;52.50;;;;;;4976526;28;20191;-65
2023/03/31 10:58:09;;;;;;;2.70;0.82;;;13.70;49.50;;;;;;4976771;28;20195;-65
2023/03/31 11:00:44;;;;;;;5.18;1.13;;;13.70;51.30;;;;;;4976186;28;20203;-65
2023/03/31 11:03:38;;;;;;;2.97;0.80;;;13.70;51.60;;;;;;4975987;28;20230;-65
2023/03/31 11:06:10;;;;;;;3.17;1.00;;;13.70;50.50;;;;;;4976075;28;20219;-65
2023/03/31 11:08:48;;;;;;;3.85;0.95;;;13.70;50.10;;;;;;4976372;28;20591;-65
2023/03/31 11:11:40;;;;;;;2.72;1.08;;;13.70;51.50;;;;;;4976197;28;20187;-65
2023/03/31 11:14:13;;;;;;;4.15;1.10;;;13.80;51.70;;;;;;4975504;28;20615;-65
2023/03/31 11:16:44;;;;;;;1.90;0.90;;;13.90;51.70;;;;;;4976952;28;20195;-65
2023/03/31 11:19:23;;;;;;;4.28;0.80;;;14.00;50.80;;;;;;4976052;28;20183;-65
2023/03/31 11:21:58;;;;;;;7.15;0.73;;;14.10;51.20;;;;;;4975654;28;20214;-65
2023/03/31 11:24:39;;;;;;;2.38;0.60;;;14.20;47.60;;;;;;4975832;28;20206;-65
2023/03/31 11:27:24;;;;;;;7.80;0.70;;;14.20;48.70;;;;;;4975925;28;20191;-65
2023/03/31 11:29:57;;;;;;;1.92;0.63;;;14.20;49.40;;;;;;4975907;28;20188;-65
2023/03/31 11:32:40;;;;;;;0.80;0.60;;;14.20;51.10;;;;;;4975783;28;20227;-65
2023/03/31 11:35:31;;;;;;;2.55;0.68;;;14.10;50.80;;;;;;4975748;28;20191;-65
2023/03/31 11:38:14;;;;;;;2.47;0.90;;;14.10;52.60;;;;;;4976665;28;20200;-65
2023/03/31 11:40:54;;;;;;;1.58;0.77;;;14.00;51.80;;;;;;4975888;28;20211;-65
2023/03/31 11:43:28;;;;;;;2.80;0.77;;;13.90;51.80;;;;;;4976199;28;20313;-65
2023/03/31 11:45:58;;;;;;;2.72;0.77;;;13.90;51.20;;;;;;4975668;28;20194;-65
2023/03/31 11:48:35;;;;;;;2.13;0.90;;;13.80;57.50;;;;;;4975870;28;20188;-65
2023/03/31 11:51:04;;;;;;;3.58;0.80;;;13.30;58.20;;;;;;4975599;28;20192;-65
2023/03/31 11:53:35;;;;;;;0.50;0.50;;;12.90;99.90;;;;;;4975804;28;20223;-65
2023/03/31 11:56:06;;;;;;;0.82;0.55;;;12.60;99.90;;;;;;4976716;28;20194;-65
2023/03/31 11:58:37;;;;;;;1.58;0.60;;;12.50;99.90;;;;;;4975902;28;20290;-67
2023/03/31 12:01:11;;;;;;;1.67;0.80;;;12.50;99.90;;;;;;4975613;28;20203;-66
2023/03/31 12:03:43;;;;;;;3.33;0.63;;;12.50;99.90;;;;;;4975163;28;20234;-65
2023/03/31 12:06:16;;;;;;;2.13;0.73;;;12.50;99.90;;;;;;4975012;28;20563;-65
2023/03/31 12:08:49;;;;;;;1.05;0.85;;;12.50;92.00;;;;;;4975089;28;20598;-65
2023/03/31 12:11:26;;;;;;;1.20;0.88;;;12.50;82.80;;;;;;4975116;28;20183;-66
2023/03/31 12:13:58;;;;;;;2.72;0.82;;;12.50;88.50;;;;;;4974958;28;20318;-66
2023/03/31 12:16:35;;;;;;;2.78;0.90;;;12.60;81.80;;;;;;4975635;28;20655;-68
2023/03/31 12:19:07;;;;;;;1.52;1.08;;;12.70;84.00;;;;;;4974750;28;20550;-67
2023/03/31 12:21:35;;;;;;;3.00;1.20;;;12.70;80.40;;;;;;4997124;23;20219;-64
2023/03/31 12:24:02;;;;;;;2.83;0.98;;;12.80;83.10;;;;;;4974616;28;20199;-64
2023/03/31 12:26:38;;;;;;;5.60;1.00;;;12.70;84.50;;;;;;4974831;28;20210;-65
2023/03/31 12:29:16;;;;;;;1.48;0.85;;;12.70;93.20;;;;;;4974643;28;20191;-65
2023/03/31 12:31:44;;;;;;;1.15;0.70;;;12.60;93.00;;;;;;4974800;28;20226;-65
2023/03/31 12:34:15;;;;;;;4.40;1.00;;;12.70;81.20;;;;;;4974134;28;20203;-65
2023/03/31 12:36:55;;;;;;;3.08;0.90;;;12.70;79.60;;;;;;4974831;28;20250;-64
2023/03/31 12:39:35;;;;;;;7.70;1.15;;;12.50;84.90;;;;;;4974697;28;20195;-64
2023/03/31 12:42:48;;;;;;;1.40;0.95;;;12.20;90.30;;;;;;4974520;28;20238;-65
2023/03/31 12:45:24;;;;;;;0.88;0.47;;;11.80;80.80;;;;;;4974638;28;20192;-65
2023/03/31 12:48:30;;;;;;;3.38;0.70;;;11.40;76.60;;;;;;4974596;28;20183;-65
2023/03/31 12:51:11;;;;;;;1.70;0.80;;;11.30;80.70;;;;;;4946461;28;20226;-65
2023/03/31 12:53:49;;;;;;;0.80;0.50;;;11.30;69.90;;;;;;4974579;28;20190;-64
2023/03/31 12:56:16;;;;;;;1.65;0.60;;;11.20;70.70;;;;;;4974870;28;20191;-64
2023/03/31 12:58:46;;;;;;;1.83;0.50;;;11.20;69.70;;;;;;4974257;28;20670;-64
2023/03/31 13:01:17;;;;;;;0.55;0.40;;;11.30;64.90;;;;;;4974435;28;20261;-64
2023/03/31 13:04:09;;;;;;;4.13;0.60;;;11.40;65.10;;;;;;4974420;28;20187;-64
2023/03/31 13:06:53;;;;;;;1.52;0.40;;;11.80;65.90;;;;;;4975916;28;20193;-64
2023/03/31 13:09:41;;;;;;;0.43;0.43;;;12.00;61.80;;;;;;4974513;28;20203;-64
2023/03/31 13:12:13;;;;;;;1.33;0.60;;;12.10;58.80;;;;;;4977562;28;20223;-63
2023/03/31 13:14:44;;;;;;;1.95;0.60;;;12.20;58.10;;;;;;4975574;28;20223;-64
2023/03/31 13:17:30;;;;;;;4.03;0.70;;;12.20;58.60;;;;;;4974217;28;20227;-64
2023/03/31 13:20:13;;;;;;;1.38;0.60;;;12.20;58.40;;;;;;4978137;28;20191;-64
2023/03/31 13:22:44;;;;;;;0.70;0.60;;;12.30;60.00;;;;;;4977336;28;20231;-65
2023/03/31 13:25:43;;;;;;;2.17;0.70;;;12.50;59.80;;;;;;4977882;28;20188;-65
2023/03/31 13:28:16;;;;;;;1.90;0.50;;;12.80;55.90;;;;;;4881966;29;20191;-65
2023/03/31 13:30:51;;;;;;;3.40;0.73;;;12.90;55.40;;;;;;4960986;28;20215;-65
2023/03/31 13:33:23;;;;;;;3.47;0.80;;;13.20;54.90;;;;;;4977876;28;20189;-64
2023/03/31 13:35:53;;;;;;;0.90;0.57;;;13.40;53.30;;;;;;4979002;28;20188;-67
2023/03/31 13:38:35;;;;;;;1.33;0.70;;;13.30;52.80;;;;;;4977786;28;20184;-63
2023/03/31 13:41:27;;;;;;;1.88;0.80;;;13.10;52.60;;;;;;4978857;28;20223;-64
2023/03/31 13:44:28;;;;;;;2.70;0.80;;;13.00;53.00;;;;;;4979231;28;20714;-64
2023/03/31 13:47:22;;;;;;;1.83;0.85;;;12.80;54.00;;;;;;4982194;28;20278;-64
2023/03/31 13:50:19;;;;;;;4.05;0.73;;;12.90;56.00;;;;;;4980669;28;20663;-63
2023/03/31 13:52:58;;;;;;;1.40;0.80;;;13.10;55.20;;;;;;4964998;28;20290;-64
2023/03/31 13:56:01;;;;;;;3.85;0.93;;;13.30;52.80;;;;;;4981610;28;20251;-63
2023/03/31 13:58:54;;;;;;;0.95;0.88;;;13.50;53.20;;;;;;4981230;28;20291;-64
2023/03/31 14:01:39;;;;;;;2.70;0.85;;;13.60;52.50;;;;;;4981538;28;20681;-64
2023/03/31 14:04:29;;;;;;;2.65;1.02;;;13.40;52.40;;;;;;4980615;28;20219;-64
2023/03/31 14:07:03;;;;;;;5.35;0.90;;;13.10;53.30;;;;;;4981081;28;20255;-63
2023/03/31 14:09:33;;;;;;;4.13;1.10;;;13.10;55.20;;;;;;4980886;28;20188;-64
2023/03/31 14:12:00;;;;;;;2.58;1.00;;;13.10;54.60;;;;;;4981524;28;20285;-63
2023/03/31 14:14:28;;;;;;;3.22;0.75;;;13.00;57.10;;;;;;4981457;28;20651;-63
2023/03/31 14:16:59;;;;;;;1.27;0.73;;;13.10;57.30;;;;;;4981798;28;20214;-63
2023/03/31 14:20:07;;;;;;;2.67;0.75;;;13.00;58.20;;;;;;4981413;28;20598;-63
2023/03/31 14:22:47;;;;;;;2.65;1.00;;;12.90;62.70;;;;;;4966312;28;20322;-63
2023/03/31 14:25:20;;;;;;;5.07;1.20;;;12.40;97.70;;;;;;4980911;28;20194;-63
2023/03/31 14:28:01;;;;;;;4.88;1.13;;;12.10;99.90;;;;;;4981689;28;20207;-63
2023/03/31 14:30:37;;;;;;;1.98;0.70;;;11.70;99.90;;;;;;4981584;28;20621;-63
2023/03/31 14:33:17;;;;;;;2.17;0.57;;;10.40;99.90;;;;;;4981706;28;20215;-63
2023/03/31 14:35:56;;;;;;;2.08;0.73;;;9.60;99.90;;;;;;4981848;28;20187;-62
2023/03/31 14:38:25;;;;;;;1.52;0.70;;;9.10;99.90;;;;;;4981600;28;20195;-62
2023/03/31 14:40:59;;;;;;;2.35;0.70;;;8.80;99.90;;;;;;4980609;28;20781;-65
2023/03/31 14:43:29;;;;;;;2.50;0.52;;;8.50;99.90;;;;;;4980964;28;20198;-62
2023/03/31 14:46:00;;;;;;;1.40;0.70;;;8.20;99.90;;;;;;4976868;28;20211;-66
2023/03/31 14:48:28;;;;;;;1.00;0.47;;;8.00;99.90;;;;;;4976868;28;20199;-65
2023/03/31 14:51:00;;;;;;;0.93;0.50;;;7.80;99.90;;;;;;4977158;28;20310;-65
2023/03/31 14:53:27;;;;;;;2.13;0.60;;;7.70;99.90;;;;;;4977047;28;20195;-66
2023/03/31 14:56:02;;;;;;;1.05;0.50;;;7.70;99.90;;;;;;4976601;28;20203;-65
2023/03/31 14:58:34;;;;;;;0.40;0.40;;;7.70;99.90;;;;;;4976631;28;20315;-66
2023/03/31 15:01:03;;;;;;;2.42;0.68;;;7.70;99.90;;;;;;4976660;28;20578;-66
2023/03/31 15:03:33;;;;;;;0.60;0.40;;;7.70;99.90;;;;;;4976236;28;20202;-65
2023/03/31 15:06:03;;;;;;;0.40;0.40;;;7.70;99.90;;;;;;4959191;28;20223;-65
2023/03/31 15:08:32;;;;;;;2.35;0.50;;;7.80;99.90;;;;;;4976534;28;20192;-66
2023/03/31 15:11:04;;;;;;;0.75;0.60;;;7.90;99.90;;;;;;4959132;28;20237;-63
2023/03/31 15:13:35;;;;;;;2.25;0.63;;;8.00;99.90;;;;;;4976376;28;20277;-63
2023/03/31 15:16:21;;;;;;;0.52;0.40;;;8.00;99.90;;;;;;4975963;28;20203;-62
2023/03/31 15:18:49;;;;;;;1.75;0.40;;;8.10;99.90;;;;;;4976699;28;20187;-65
2023/03/31 15:21:23;;;;;;;0.45;0.40;;;8.10;99.90;;;;;;4959541;28;20238;-65
2023/03/31 15:23:52;;;;;;;2.03;0.47;;;8.10;99.90;;;;;;4975693;28;20690;-65
2023/03/31 15:26:23;;;;;;;0.73;0.65;;;8.10;99.90;;;;;;4975709;28;20211;-64
2023/03/31 15:28:53;;;;;;;2.05;0.43;;;8.00;99.90;;;;;;4975748;28;20188;-65
2023/03/31 15:31:21;;;;;;;0.55;0.38;;;7.90;99.90;;;;;;4976064;28;20223;-65
2023/03/31 15:33:49;;;;;;;0.38;0.38;;;7.80;99.90;;;;;;4975785;28;20203;-65
2023/03/31 15:36:17;;;;;;;0.43;0.40;;;7.70;99.90;;;;;;4975528;28;20245;-65
2023/03/31 15:38:47;;;;;;;0.60;0.60;;;7.70;99.90;;;;;;4976036;28;20202;-65
2023/03/31 15:41:16;;;;;;;0.52;0.50;;;7.70;99.90;;;;;;4975705;28;20227;-65
2023/03/31 15:43:47;;;;;;;0.70;0.70;;;7.60;99.90;;;;;;4975747;28;20203;-67
2023/03/31 15:46:19;;;;;;;3.67;0.52;;;7.70;99.90;;;;;;4975805;28;20191;-65
2023/03/31 15:48:51;;;;;;;1.55;0.63;;;7.70;99.90;;;;;;4975672;28;20194;-66
2023/03/31 15:51:25;;;;;;;3.58;0.93;;;7.90;99.90;;;;;;4975773;28;20306;-66
2023/03/31 15:53:55;;;;;;;1.65;0.80;;;8.20;99.90;;;;;;4975366;28;20247;-65
2023/03/31 15:56:29;;;;;;;0.75;0.75;;;8.50;99.90;;;;;;4975243;28;20759;-65
2023/03/31 15:58:58;;;;;;;2.53;0.82;;;8.70;99.90;;;;;;4975500;28;20254;-65
2023/03/31 16:01:31;;;;;;;1.60;0.70;;;8.70;99.90;;;;;;4975247;28;20230;-66
2023/03/31 16:04:00;;;;;;;1.92;0.75;;;8.70;99.90;;;;;;4975645;28;20195;-65
2023/03/31 16:06:35;;;;;;;2.17;0.60;;;8.70;99.90;;;;;;4975307;28;20234;-65
2023/03/31 16:09:06;;;;;;;2.15;0.70;;;8.70;99.90;;;;;;4974897;28;20201;-66
2023/03/31 16:11:39;;;;;;;4.63;1.15;;;8.60;99.90;;;;;;4975667;28;20222;-66
2023/03/31 16:14:11;;;;;;;1.38;0.50;;;8.50;99.90;;;;;;4975428;28;20188;-67
2023/03/31 16:16:39;;;;;;;1.98;0.98;;;8.50;99.90;;;;;;4975158;28;20187;-65
2023/03/31 16:19:09;;;;;;;1.00;0.80;;;8.50;99.90;;;;;;4978080;28;20203;-64
2023/03/31 16:21:40;;;;;;;3.03;0.88;;;8.40;99.90;;;;;;4977003;28;20231;-64
2023/03/31 16:24:10;;;;;;;1.77;0.60;;;8.40;99.90;;;;;;4980128;28;20631;-63
2023/03/31 16:26:37;;;;;;;2.95;0.70;;;8.40;99.90;;;;;;4974935;28;20214;-64
2023/03/31 16:29:05;;;;;;;1.27;0.40;;;8.40;99.90;;;;;;4975066;28;20211;-63
2023/03/31 16:31:35;;;;;;;1.77;0.60;;;8.40;99.90;;;;;;4974989;28;20227;-63
2023/03/31 16:34:03;;;;;;;1.25;0.65;;;8.40;99.90;;;;;;4974911;28;20203;-63
2023/03/31 16:36:30;;;;;;;3.78;0.80;;;8.40;99.90;;;;;;4975128;28;20222;-63
2023/03/31 16:38:57;;;;;;;3.70;0.68;;;8.40;99.90;;;;;;4975671;28;20211;-65
2023/03/31 16:41:28;;;;;;;0.65;0.50;;;8.40;99.90;;;;;;4975701;28;20298;-64
2023/03/31 16:43:55;;;;;;;1.88;0.40;;;8.40;99.90;;;;;;4974978;28;20199;-63
2023/03/31 16:46:23;;;;;;;0.50;0.50;;;8.40;99.90;;;;;;4975374;28;20210;-64
2023/03/31 16:48:51;;;;;;;1.90;0.50;;;8.40;99.90;;;;;;4960372;28;20663;-63
2023/03/31 16:51:18;;;;;;;1.58;0.60;;;8.40;99.90;;;;;;4977996;28;20223;-62
2023/03/31 16:53:46;;;;;;;1.85;0.82;;;8.40;99.90;;;;;;4977195;28;20203;-65
2023/03/31 16:56:14;;;;;;;1.25;0.90;;;8.40;99.90;;;;;;4976378;28;20235;-66
2023/03/31 16:58:42;;;;;;;1.67;0.60;;;8.40;99.90;;;;;;4977355;28;20203;-65
2023/03/31 17:01:10;;;;;;;0.98;0.50;;;8.40;99.90;;;;;;4977595;28;20278;-63
2023/03/31 17:03:40;;;;;;;3.53;0.57;;;8.30;99.90;;;;;;4975396;28;20227;-64
2023/03/31 17:06:09;;;;;;;1.10;0.80;;;8.30;99.90;;;;;;4976946;28;20203;-64
2023/03/31 17:08:36;;;;;;;1.55;0.68;;;8.30;99.90;;;;;;4976832;28;20207;-64
2023/03/31 17:11:06;;;;;;;2.00;0.85;;;8.20;99.90;;;;;;4974871;28;20268;-64
2023/03/31 17:13:33;;;;;;;1.02;0.52;;;8.30;99.90;;;;;;4976179;28;20303;-63
2023/03/31 17:16:01;;;;;;;3.63;0.82;;;8.20;99.90;;;;;;4975186;28;20214;-64
2023/03/31 17:18:28;;;;;;;2.35;1.10;;;8.20;99.90;;;;;;4974770;28;20211;-63